Bara Zur — FGTL — position and weather

sailwx.info

Track history (hours):
 
Tides and Currents Weather Stations Pressure Air Temp Water Temp Dewpoint Dewpoint Depression Visibility Wind Speed Wind Dir Waves Ship Positions

Bara Zur

Last reported at 2018-Jul-16 05:53 UTC. Time now 2018-Jul-16 23:58 UTC.
Position N 47°46' W 005°40'.

Length 24 m.

Type: Fishing. MMSI: 227327000.

Date/timePositionNaut miles runAvg speedWind from/ knotsBaromVisibWave heightAir tempDewpointWater temp
2018-Jul-16 05:53N 47°46' W 005°40'1 2.6
2018-Jul-16 05:19N 47°45' W 005°41'1 2.8
2018-Jul-16 04:50N 47°44' W 005°41'1 2.8
2018-Jul-16 04:28N 47°43' W 005°41'2 3.2
2018-Jul-16 03:58N 47°41' W 005°41'2 3.3
2018-Jul-16 03:25N 47°39' W 005°42'2 4.6
2018-Jul-16 02:58N 47°38' W 005°43'0 0.7
2018-Jul-16 02:30N 47°38' W 005°43'1 2.0
2018-Jul-16 02:00N 47°38' W 005°42'1 1.7
2018-Jul-16 01:30N 47°38' W 005°40'1 2.3
2018-Jul-16 00:59N 47°38' W 005°39'2 2.7
2018-Jul-16 00:13N 47°39' W 005°36'5 3.1
2018-Jul-15 22:32N 47°44' W 005°32'0 3.6
2018-Jul-15 22:29N 47°44' W 005°32'9 1.0
2018-Jul-15 12:57N 47°40' W 005°45'2 4.7
2018-Jul-15 12:30N 47°39' W 005°42'1 2.7
2018-Jul-15 12:00N 47°39' W 005°40'1 2.9
2018-Jul-15 11:30N 47°39' W 005°38'1 2.9
2018-Jul-15 11:00N 47°40' W 005°36'11 3.5
2018-Jul-15 07:43N 47°52' W 005°35'10 1.9
2018-Jul-15 02:27N 47°48' W 005°49'1 2.5
2018-Jul-15 01:58N 47°46' W 005°49'2 3.1
2018-Jul-15 01:16N 47°44' W 005°49'1 3.3
2018-Jul-15 01:00N 47°43' W 005°49'2 3.1
2018-Jul-15 00:30N 47°42' W 005°47'2 3.2
2018-Jul-14 23:58N 47°42' W 005°45'1 2.8
2018-Jul-14 23:27N 47°41' W 005°43'2 2.6
2018-Jul-14 22:38N 47°41' W 005°40'7 3.4
2018-Jul-14 20:33N 47°47' W 005°37'8 0.7
2018-Jul-14 07:54N 47°52' W 005°47'4 2.5
2018-Jul-14 06:12N 47°56' W 005°49'4 2.6
2018-Jul-14 04:42N 47°58' W 005°53'1 1.7
2018-Jul-14 04:14N 47°58' W 005°55'1 2.6
2018-Jul-14 04:00N 47°58' W 005°55'1 2.8
2018-Jul-14 03:30N 47°57' W 005°57'1 2.9
2018-Jul-14 03:00N 47°56' W 005°58'1 2.8
2018-Jul-14 02:30N 47°54' W 005°59'1 2.5
2018-Jul-14 02:00N 47°53' W 005°60'2 2.3
2018-Jul-14 01:10N 47°51' W 006°00'1 2.4
2018-Jul-14 00:54N 47°51' W 005°60'1 2.5
2018-Jul-14 00:26N 47°50' W 005°59'1 2.5
2018-Jul-14 00:00N 47°49' W 005°57'1 2.8
2018-Jul-13 23:29N 47°48' W 005°56'2 2.7
2018-Jul-13 22:53N 47°48' W 005°54'1 2.7
2018-Jul-13 22:30N 47°49' W 005°53'2 2.5
2018-Jul-13 21:34N 47°51' W 005°52'0 7.1
2018-Jul-13 21:30N 47°51' W 005°52'1 1.6
2018-Jul-13 20:38N 47°50' W 005°50'0 3.5
2018-Jul-13 20:30N 47°50' W 005°50'9 2.2
2018-Jul-13 16:38N 47°58' W 005°56'6 0.7
2018-Jul-13 07:53N 47°54' W 005°50'6 2.0
2018-Jul-13 04:53N 47°58' W 005°57'9 2.6
2018-Jul-13 01:23N 47°49' W 005°57'1 2.5
2018-Jul-13 00:48N 47°48' W 005°55'1 2.6
2018-Jul-13 00:27N 47°47' W 005°54'1 2.9
2018-Jul-13 00:00N 47°46' W 005°53'1 2.9
2018-Jul-12 23:30N 47°45' W 005°52'1 2.9
2018-Jul-12 23:00N 47°44' W 005°51'1 2.8
2018-Jul-12 22:30N 47°43' W 005°49'1 2.6
2018-Jul-12 21:59N 47°42' W 005°47'1 2.8
2018-Jul-12 21:29N 47°43' W 005°45'2 3.6
2018-Jul-12 21:00N 47°44' W 005°43'1 3.0
2018-Jul-12 20:30N 47°45' W 005°42'6 3.2
2018-Jul-12 18:32N 47°51' W 005°39'0 3.1
2018-Jul-12 18:30N 47°51' W 005°39'2 3.0
2018-Jul-12 17:58N 47°53' W 005°39'1 2.9
2018-Jul-12 17:30N 47°54' W 005°39'2 3.2
2018-Jul-12 16:48N 47°56' W 005°40'0 0.8
2018-Jul-12 16:30N 47°56' W 005°40'2 2.2
2018-Jul-12 15:45N 47°56' W 005°43'1 2.3
2018-Jul-12 15:16N 47°54' W 005°43'1 2.4
2018-Jul-12 15:00N 47°54' W 005°43'12 1.9
2018-Jul-12 08:55N 47°45' W 005°31'1 2.6
2018-Jul-12 08:27N 47°46' W 005°31'2 2.9
2018-Jul-12 07:46N 47°48' W 005°31'7 2.2
2018-Jul-12 04:33N 47°54' W 005°38'1 2.2
2018-Jul-12 04:14N 47°54' W 005°39'0 2.0
2018-Jul-12 04:00N 47°53' W 005°39'1 2.1
2018-Jul-12 03:30N 47°53' W 005°40'2 2.9
2018-Jul-12 02:44N 47°51' W 005°43'0 1.5
2018-Jul-12 02:30N 47°51' W 005°43'1 2.6
2018-Jul-12 02:00N 47°49' W 005°43'1 2.7
2018-Jul-12 01:28N 47°48' W 005°43'57 4.1
2018-Jul-11 11:38N 47°47' W 004°18'  
2018-Jul-07 08:48N 47°46' W 004°20'  
Track history (hours):
 
Tides and Currents Weather Stations Pressure Air Temp Water Temp Dewpoint Dewpoint Depression Visibility Wind Speed Wind Dir Waves Ship Positions

Bara Zur

Last reported at 2018-Jul-16 05:53 UTC. Time now 2018-Jul-16 23:58 UTC.
Position N 47°46' W 005°40'.

Length 24 m.

Type: Fishing. MMSI: 227327000.

Date/timePositionNaut miles runAvg speedWind from/ knotsBaromVisibWave heightAir tempDewpointWater temp
2018-Jul-16 05:53N 47°46' W 005°40'1 2.6
2018-Jul-16 05:19N 47°45' W 005°41'1 2.8
2018-Jul-16 04:50N 47°44' W 005°41'1 2.8
2018-Jul-16 04:28N 47°43' W 005°41'2 3.2
2018-Jul-16 03:58N 47°41' W 005°41'2 3.3
2018-Jul-16 03:25N 47°39' W 005°42'2 4.6
2018-Jul-16 02:58N 47°38' W 005°43'0 0.7
2018-Jul-16 02:30N 47°38' W 005°43'1 2.0
2018-Jul-16 02:00N 47°38' W 005°42'1 1.7
2018-Jul-16 01:30N 47°38' W 005°40'1 2.3
2018-Jul-16 00:59N 47°38' W 005°39'2 2.7
2018-Jul-16 00:13N 47°39' W 005°36'5 3.1
2018-Jul-15 22:32N 47°44' W 005°32'0 3.6
2018-Jul-15 22:29N 47°44' W 005°32'9 1.0
2018-Jul-15 12:57N 47°40' W 005°45'2 4.7
2018-Jul-15 12:30N 47°39' W 005°42'1 2.7
2018-Jul-15 12:00N 47°39' W 005°40'1 2.9
2018-Jul-15 11:30N 47°39' W 005°38'1 2.9
2018-Jul-15 11:00N 47°40' W 005°36'11 3.5
2018-Jul-15 07:43N 47°52' W 005°35'10 1.9
2018-Jul-15 02:27N 47°48' W 005°49'1 2.5
2018-Jul-15 01:58N 47°46' W 005°49'2 3.1
2018-Jul-15 01:16N 47°44' W 005°49'1 3.3
2018-Jul-15 01:00N 47°43' W 005°49'2 3.1
2018-Jul-15 00:30N 47°42' W 005°47'2 3.2
2018-Jul-14 23:58N 47°42' W 005°45'1 2.8
2018-Jul-14 23:27N 47°41' W 005°43'2 2.6
2018-Jul-14 22:38N 47°41' W 005°40'7 3.4
2018-Jul-14 20:33N 47°47' W 005°37'8 0.7
2018-Jul-14 07:54N 47°52' W 005°47'4 2.5
2018-Jul-14 06:12N 47°56' W 005°49'4 2.6
2018-Jul-14 04:42N 47°58' W 005°53'1 1.7
2018-Jul-14 04:14N 47°58' W 005°55'1 2.6
2018-Jul-14 04:00N 47°58' W 005°55'1 2.8
2018-Jul-14 03:30N 47°57' W 005°57'1 2.9
2018-Jul-14 03:00N 47°56' W 005°58'1 2.8
2018-Jul-14 02:30N 47°54' W 005°59'1 2.5
2018-Jul-14 02:00N 47°53' W 005°60'2 2.3
2018-Jul-14 01:10N 47°51' W 006°00'1 2.4
2018-Jul-14 00:54N 47°51' W 005°60'1 2.5
2018-Jul-14 00:26N 47°50' W 005°59'1 2.5
2018-Jul-14 00:00N 47°49' W 005°57'1 2.8
2018-Jul-13 23:29N 47°48' W 005°56'2 2.7
2018-Jul-13 22:53N 47°48' W 005°54'1 2.7
2018-Jul-13 22:30N 47°49' W 005°53'2 2.5
2018-Jul-13 21:34N 47°51' W 005°52'0 7.1
2018-Jul-13 21:30N 47°51' W 005°52'1 1.6
2018-Jul-13 20:38N 47°50' W 005°50'0 3.5
2018-Jul-13 20:30N 47°50' W 005°50'9 2.2
2018-Jul-13 16:38N 47°58' W 005°56'6 0.7
2018-Jul-13 07:53N 47°54' W 005°50'6 2.0
2018-Jul-13 04:53N 47°58' W 005°57'9 2.6
2018-Jul-13 01:23N 47°49' W 005°57'1 2.5
2018-Jul-13 00:48N 47°48' W 005°55'1 2.6
2018-Jul-13 00:27N 47°47' W 005°54'1 2.9
2018-Jul-13 00:00N 47°46' W 005°53'1 2.9
2018-Jul-12 23:30N 47°45' W 005°52'1 2.9
2018-Jul-12 23:00N 47°44' W 005°51'1 2.8
2018-Jul-12 22:30N 47°43' W 005°49'1 2.6
2018-Jul-12 21:59N 47°42' W 005°47'1 2.8
2018-Jul-12 21:29N 47°43' W 005°45'2 3.6
2018-Jul-12 21:00N 47°44' W 005°43'1 3.0
2018-Jul-12 20:30N 47°45' W 005°42'6 3.2
2018-Jul-12 18:32N 47°51' W 005°39'0 3.1
2018-Jul-12 18:30N 47°51' W 005°39'2 3.0
2018-Jul-12 17:58N 47°53' W 005°39'1 2.9
2018-Jul-12 17:30N 47°54' W 005°39'2 3.2
2018-Jul-12 16:48N 47°56' W 005°40'0 0.8
2018-Jul-12 16:30N 47°56' W 005°40'2 2.2
2018-Jul-12 15:45N 47°56' W 005°43'1 2.3
2018-Jul-12 15:16N 47°54' W 005°43'1 2.4
2018-Jul-12 15:00N 47°54' W 005°43'12 1.9
2018-Jul-12 08:55N 47°45' W 005°31'1 2.6
2018-Jul-12 08:27N 47°46' W 005°31'2 2.9
2018-Jul-12 07:46N 47°48' W 005°31'7 2.2
2018-Jul-12 04:33N 47°54' W 005°38'1 2.2
2018-Jul-12 04:14N 47°54' W 005°39'0 2.0
2018-Jul-12 04:00N 47°53' W 005°39'1 2.1
2018-Jul-12 03:30N 47°53' W 005°40'2 2.9
2018-Jul-12 02:44N 47°51' W 005°43'0 1.5
2018-Jul-12 02:30N 47°51' W 005°43'1 2.6
2018-Jul-12 02:00N 47°49' W 005°43'1 2.7
2018-Jul-12 01:28N 47°48' W 005°43'57 4.1
2018-Jul-11 11:38N 47°47' W 004°18'  
2018-Jul-07 08:48N 47°46' W 004°20'  

Dump ship's entire track history